sensor_id;sensor_type;location;lat;lon;timestamp;P1;durP1;ratioP1;P2;durP2;ratioP2
56045;SDS011;41913;51.030;3.706;2024-01-30T00:02:14;2.78;;;2.58;;
56045;SDS011;41913;51.030;3.706;2024-01-30T00:04:40;2.35;;;2.05;;
56045;SDS011;41913;51.030;3.706;2024-01-30T00:07:06;2.47;;;2.03;;
56045;SDS011;41913;51.030;3.706;2024-01-30T00:09:31;2.53;;;2.00;;
56045;SDS011;41913;51.030;3.706;2024-01-30T00:11:58;2.28;;;2.08;;
56045;SDS011;41913;51.030;3.706;2024-01-30T00:14:24;2.55;;;2.33;;
56045;SDS011;41913;51.030;3.706;2024-01-30T00:16:51;2.58;;;2.10;;
56045;SDS011;41913;51.030;3.706;2024-01-30T00:19:17;2.10;;;2.00;;
56045;SDS011;41913;51.030;3.706;2024-01-30T00:21:43;2.53;;;2.33;;
56045;SDS011;41913;51.030;3.706;2024-01-30T00:24:10;2.38;;;2.17;;
56045;SDS011;41913;51.030;3.706;2024-01-30T00:26:36;2.67;;;2.03;;
56045;SDS011;41913;51.030;3.706;2024-01-30T00:29:02;1.92;;;1.83;;
56045;SDS011;41913;51.030;3.706;2024-01-30T00:31:28;2.65;;;2.45;;
56045;SDS011;41913;51.030;3.706;2024-01-30T00:33:54;2.20;;;2.10;;
56045;SDS011;41913;51.030;3.706;2024-01-30T00:36:20;1.65;;;1.55;;
56045;SDS011;41913;51.030;3.706;2024-01-30T00:38:46;2.75;;;2.55;;
56045;SDS011;41913;51.030;3.706;2024-01-30T00:41:12;3.13;;;1.70;;
56045;SDS011;41913;51.030;3.706;2024-01-30T00:43:38;2.53;;;2.25;;
56045;SDS011;41913;51.030;3.706;2024-01-30T00:46:04;1.52;;;1.42;;
56045;SDS011;41913;51.030;3.706;2024-01-30T00:48:30;1.92;;;1.83;;
56045;SDS011;41913;51.030;3.706;2024-01-30T00:50:56;3.80;;;2.45;;
56045;SDS011;41913;51.030;3.706;2024-01-30T00:53:21;2.22;;;2.03;;
56045;SDS011;41913;51.030;3.706;2024-01-30T00:55:49;3.45;;;2.45;;
56045;SDS011;41913;51.030;3.706;2024-01-30T00:58:15;2.20;;;1.95;;
56045;SDS011;41913;51.030;3.706;2024-01-30T01:00:41;2.20;;;2.10;;
56045;SDS011;41913;51.030;3.706;2024-01-30T01:03:07;2.17;;;2.08;;
56045;SDS011;41913;51.030;3.706;2024-01-30T01:05:32;2.42;;;2.33;;
56045;SDS011;41913;51.030;3.706;2024-01-30T01:07:58;2.10;;;2.00;;
56045;SDS011;41913;51.030;3.706;2024-01-30T01:10:25;2.20;;;2.10;;
56045;SDS011;41913;51.030;3.706;2024-01-30T01:12:53;2.50;;;2.28;;
56045;SDS011;41913;51.030;3.706;2024-01-30T01:15:19;2.28;;;2.10;;
56045;SDS011;41913;51.030;3.706;2024-01-30T01:17:45;2.30;;;2.10;;
56045;SDS011;41913;51.030;3.706;2024-01-30T01:20:12;2.72;;;1.92;;
56045;SDS011;41913;51.030;3.706;2024-01-30T01:22:38;2.50;;;2.13;;
56045;SDS011;41913;51.030;3.706;2024-01-30T01:25:04;2.40;;;2.00;;
56045;SDS011;41913;51.030;3.706;2024-01-30T01:27:33;2.28;;;2.13;;
56045;SDS011;41913;51.030;3.706;2024-01-30T01:29:59;2.10;;;2.00;;
56045;SDS011;41913;51.030;3.706;2024-01-30T01:32:26;2.30;;;2.10;;
56045;SDS011;41913;51.030;3.706;2024-01-30T01:34:51;3.05;;;2.20;;
56045;SDS011;41913;51.030;3.706;2024-01-30T01:37:17;2.50;;;2.22;;
56045;SDS011;41913;51.030;3.706;2024-01-30T01:39:43;2.10;;;1.90;;
56045;SDS011;41913;51.030;3.706;2024-01-30T01:42:09;2.45;;;2.22;;
56045;SDS011;41913;51.030;3.706;2024-01-30T01:44:35;2.58;;;2.42;;
56045;SDS011;41913;51.030;3.706;2024-01-30T01:47:00;2.22;;;2.00;;
56045;SDS011;41913;51.030;3.706;2024-01-30T01:49:27;2.58;;;2.47;;
56045;SDS011;41913;51.030;3.706;2024-01-30T01:51:54;2.90;;;2.13;;
56045;SDS011;41913;51.030;3.706;2024-01-30T01:54:23;2.05;;;1.95;;
56045;SDS011;41913;51.030;3.706;2024-01-30T01:56:51;2.17;;;1.90;;
56045;SDS011;41913;51.030;3.706;2024-01-30T01:59:18;2.38;;;2.28;;
56045;SDS011;41913;51.030;3.706;2024-01-30T02:01:45;2.08;;;1.98;;
56045;SDS011;41913;51.030;3.706;2024-01-30T02:04:14;2.03;;;1.92;;
56045;SDS011;41913;51.030;3.706;2024-01-30T02:06:41;2.90;;;2.17;;
56045;SDS011;41913;51.030;3.706;2024-01-30T02:09:07;2.25;;;2.05;;
56045;SDS011;41913;51.030;3.706;2024-01-30T02:11:34;2.35;;;2.20;;
56045;SDS011;41913;51.030;3.706;2024-01-30T02:14:03;3.22;;;2.40;;
56045;SDS011;41913;51.030;3.706;2024-01-30T02:16:29;1.83;;;1.73;;
56045;SDS011;41913;51.030;3.706;2024-01-30T02:18:55;1.88;;;1.77;;
56045;SDS011;41913;51.030;3.706;2024-01-30T02:21:21;2.50;;;2.30;;
56045;SDS011;41913;51.030;3.706;2024-01-30T02:23:47;2.35;;;2.17;;
56045;SDS011;41913;51.030;3.706;2024-01-30T02:26:14;2.03;;;1.92;;
56045;SDS011;41913;51.030;3.706;2024-01-30T02:28:41;2.13;;;2.03;;
56045;SDS011;41913;51.030;3.706;2024-01-30T02:31:07;2.53;;;1.70;;
56045;SDS011;41913;51.030;3.706;2024-01-30T02:33:33;2.40;;;2.30;;
56045;SDS011;41913;51.030;3.706;2024-01-30T02:36:00;2.00;;;1.90;;
56045;SDS011;41913;51.030;3.706;2024-01-30T02:38:27;2.50;;;2.30;;
56045;SDS011;41913;51.030;3.706;2024-01-30T02:40:54;2.30;;;2.20;;
56045;SDS011;41913;51.030;3.706;2024-01-30T02:43:22;2.28;;;1.90;;
56045;SDS011;41913;51.030;3.706;2024-01-30T02:45:48;2.60;;;2.40;;
56045;SDS011;41913;51.030;3.706;2024-01-30T02:48:15;1.88;;;1.77;;
56045;SDS011;41913;51.030;3.706;2024-01-30T02:50:42;2.58;;;2.20;;
56045;SDS011;41913;51.030;3.706;2024-01-30T02:53:07;1.73;;;1.63;;
56045;SDS011;41913;51.030;3.706;2024-01-30T02:55:34;1.83;;;1.70;;
56045;SDS011;41913;51.030;3.706;2024-01-30T02:58:03;2.05;;;1.95;;
56045;SDS011;41913;51.030;3.706;2024-01-30T03:00:29;2.20;;;2.08;;
56045;SDS011;41913;51.030;3.706;2024-01-30T03:02:55;2.33;;;2.22;;
56045;SDS011;41913;51.030;3.706;2024-01-30T03:05:20;1.50;;;1.50;;
56045;SDS011;41913;51.030;3.706;2024-01-30T03:07:46;1.88;;;1.80;;
56045;SDS011;41913;51.030;3.706;2024-01-30T03:10:12;2.47;;;2.33;;
56045;SDS011;41913;51.030;3.706;2024-01-30T03:12:38;2.55;;;2.35;;
56045;SDS011;41913;51.030;3.706;2024-01-30T03:15:05;2.13;;;2.03;;
56045;SDS011;41913;51.030;3.706;2024-01-30T03:17:31;2.60;;;2.40;;
56045;SDS011;41913;51.030;3.706;2024-01-30T03:19:57;2.83;;;2.50;;
56045;SDS011;41913;51.030;3.706;2024-01-30T03:22:24;1.85;;;1.75;;
56045;SDS011;41913;51.030;3.706;2024-01-30T03:24:51;2.05;;;1.95;;
56045;SDS011;41913;51.030;3.706;2024-01-30T03:27:16;2.20;;;1.95;;
56045;SDS011;41913;51.030;3.706;2024-01-30T03:29:42;2.60;;;2.50;;
56045;SDS011;41913;51.030;3.706;2024-01-30T03:32:08;2.00;;;1.90;;
56045;SDS011;41913;51.030;3.706;2024-01-30T03:34:35;2.55;;;2.35;;
56045;SDS011;41913;51.030;3.706;2024-01-30T03:37:00;2.42;;;2.13;;
56045;SDS011;41913;51.030;3.706;2024-01-30T03:39:26;2.65;;;2.47;;
56045;SDS011;41913;51.030;3.706;2024-01-30T03:41:54;1.92;;;1.88;;
56045;SDS011;41913;51.030;3.706;2024-01-30T03:44:20;2.33;;;2.13;;
56045;SDS011;41913;51.030;3.706;2024-01-30T03:46:48;2.63;;;2.40;;
56045;SDS011;41913;51.030;3.706;2024-01-30T03:49:13;2.28;;;2.17;;
56045;SDS011;41913;51.030;3.706;2024-01-30T03:51:39;1.80;;;1.70;;
56045;SDS011;41913;51.030;3.706;2024-01-30T03:56:34;1.80;;;1.70;;
56045;SDS011;41913;51.030;3.706;2024-01-30T03:59:00;2.20;;;2.05;;
56045;SDS011;41913;51.030;3.706;2024-01-30T04:01:27;2.70;;;2.50;;
56045;SDS011;41913;51.030;3.706;2024-01-30T04:03:54;2.15;;;2.05;;
56045;SDS011;41913;51.030;3.706;2024-01-30T04:06:20;1.98;;;1.88;;
56045;SDS011;41913;51.030;3.706;2024-01-30T04:08:46;2.20;;;2.00;;
56045;SDS011;41913;51.030;3.706;2024-01-30T04:11:11;2.08;;;1.95;;
56045;SDS011;41913;51.030;3.706;2024-01-30T04:13:37;2.40;;;2.30;;
56045;SDS011;41913;51.030;3.706;2024-01-30T04:16:04;2.30;;;2.20;;
56045;SDS011;41913;51.030;3.706;2024-01-30T04:18:30;2.28;;;2.17;;
56045;SDS011;41913;51.030;3.706;2024-01-30T04:20:57;1.90;;;1.80;;
56045;SDS011;41913;51.030;3.706;2024-01-30T04:23:22;2.15;;;2.05;;
56045;SDS011;41913;51.030;3.706;2024-01-30T04:25:48;2.28;;;2.15;;
56045;SDS011;41913;51.030;3.706;2024-01-30T04:28:14;2.58;;;2.38;;
56045;SDS011;41913;51.030;3.706;2024-01-30T04:30:41;4.53;;;2.10;;
56045;SDS011;41913;51.030;3.706;2024-01-30T04:33:07;2.42;;;2.33;;
56045;SDS011;41913;51.030;3.706;2024-01-30T04:35:39;3.45;;;2.40;;
56045;SDS011;41913;51.030;3.706;2024-01-30T04:38:06;2.08;;;1.88;;
56045;SDS011;41913;51.030;3.706;2024-01-30T04:40:31;2.05;;;1.95;;
56045;SDS011;41913;51.030;3.706;2024-01-30T04:42:58;2.20;;;2.10;;
56045;SDS011;41913;51.030;3.706;2024-01-30T04:45:24;1.75;;;1.65;;
56045;SDS011;41913;51.030;3.706;2024-01-30T04:47:50;1.98;;;1.88;;
56045;SDS011;41913;51.030;3.706;2024-01-30T04:50:16;2.35;;;2.08;;
56045;SDS011;41913;51.030;3.706;2024-01-30T04:52:48;2.38;;;2.28;;
56045;SDS011;41913;51.030;3.706;2024-01-30T04:55:14;2.67;;;2.47;;
56045;SDS011;41913;51.030;3.706;2024-01-30T04:57:40;2.17;;;2.08;;
56045;SDS011;41913;51.030;3.706;2024-01-30T05:00:07;2.10;;;2.00;;
56045;SDS011;41913;51.030;3.706;2024-01-30T05:02:33;2.60;;;2.50;;
56045;SDS011;41913;51.030;3.706;2024-01-30T05:04:59;2.20;;;2.10;;
56045;SDS011;41913;51.030;3.706;2024-01-30T05:07:25;1.98;;;1.80;;
56045;SDS011;41913;51.030;3.706;2024-01-30T05:09:51;2.60;;;2.40;;
56045;SDS011;41913;51.030;3.706;2024-01-30T05:12:17;1.75;;;1.65;;
56045;SDS011;41913;51.030;3.706;2024-01-30T05:14:43;2.42;;;2.33;;
56045;SDS011;41913;51.030;3.706;2024-01-30T05:17:08;2.47;;;2.38;;
56045;SDS011;41913;51.030;3.706;2024-01-30T05:19:35;2.33;;;2.13;;
56045;SDS011;41913;51.030;3.706;2024-01-30T05:22:01;1.92;;;1.92;;
56045;SDS011;41913;51.030;3.706;2024-01-30T05:24:27;2.13;;;2.03;;
56045;SDS011;41913;51.030;3.706;2024-01-30T05:26:53;2.47;;;2.00;;
56045;SDS011;41913;51.030;3.706;2024-01-30T05:29:19;1.90;;;1.80;;
56045;SDS011;41913;51.030;3.706;2024-01-30T05:31:45;2.55;;;2.38;;
56045;SDS011;41913;51.030;3.706;2024-01-30T05:34:12;2.42;;;2.20;;
56045;SDS011;41913;51.030;3.706;2024-01-30T05:36:38;2.28;;;2.15;;
56045;SDS011;41913;51.030;3.706;2024-01-30T05:39:04;2.22;;;1.98;;
56045;SDS011;41913;51.030;3.706;2024-01-30T05:41:30;2.10;;;2.00;;
56045;SDS011;41913;51.030;3.706;2024-01-30T05:43:58;2.20;;;2.10;;
56045;SDS011;41913;51.030;3.706;2024-01-30T05:46:23;2.03;;;1.92;;
56045;SDS011;41913;51.030;3.706;2024-01-30T05:48:49;2.88;;;2.67;;
56045;SDS011;41913;51.030;3.706;2024-01-30T05:51:15;2.38;;;2.20;;
56045;SDS011;41913;51.030;3.706;2024-01-30T05:53:40;3.95;;;1.95;;
56045;SDS011;41913;51.030;3.706;2024-01-30T05:56:06;2.40;;;2.30;;
56045;SDS011;41913;51.030;3.706;2024-01-30T05:58:32;2.20;;;2.10;;
56045;SDS011;41913;51.030;3.706;2024-01-30T06:00:58;2.85;;;2.63;;
56045;SDS011;41913;51.030;3.706;2024-01-30T06:03:24;4.22;;;2.40;;
56045;SDS011;41913;51.030;3.706;2024-01-30T06:05:51;1.85;;;1.75;;
56045;SDS011;41913;51.030;3.706;2024-01-30T06:08:17;2.80;;;2.40;;
56045;SDS011;41913;51.030;3.706;2024-01-30T06:10:43;13.35;;;3.30;;
56045;SDS011;41913;51.030;3.706;2024-01-30T06:13:09;14.57;;;2.40;;
56045;SDS011;41913;51.030;3.706;2024-01-30T06:15:37;14.65;;;2.67;;
56045;SDS011;41913;51.030;3.706;2024-01-30T06:18:02;22.63;;;3.92;;
56045;SDS011;41913;51.030;3.706;2024-01-30T06:20:28;33.67;;;5.32;;
56045;SDS011;41913;51.030;3.706;2024-01-30T06:22:54;38.72;;;4.88;;
56045;SDS011;41913;51.030;3.706;2024-01-30T06:25:20;41.67;;;5.25;;
56045;SDS011;41913;51.030;3.706;2024-01-30T06:27:46;26.25;;;4.35;;
56045;SDS011;41913;51.030;3.706;2024-01-30T06:30:12;15.02;;;4.03;;
56045;SDS011;41913;51.030;3.706;2024-01-30T06:32:38;12.80;;;4.65;;
56045;SDS011;41913;51.030;3.706;2024-01-30T06:35:03;31.02;;;4.05;;
56045;SDS011;41913;51.030;3.706;2024-01-30T06:37:31;15.90;;;4.00;;
56045;SDS011;41913;51.030;3.706;2024-01-30T06:39:56;14.88;;;3.30;;
56045;SDS011;41913;51.030;3.706;2024-01-30T06:42:22;13.98;;;2.80;;
56045;SDS011;41913;51.030;3.706;2024-01-30T06:44:48;6.10;;;3.20;;
56045;SDS011;41913;51.030;3.706;2024-01-30T06:47:15;9.68;;;3.55;;
56045;SDS011;41913;51.030;3.706;2024-01-30T06:49:41;7.30;;;3.00;;
56045;SDS011;41913;51.030;3.706;2024-01-30T06:52:08;4.75;;;2.60;;
56045;SDS011;41913;51.030;3.706;2024-01-30T06:54:39;6.65;;;2.88;;
56045;SDS011;41913;51.030;3.706;2024-01-30T06:57:06;6.45;;;2.90;;
56045;SDS011;41913;51.030;3.706;2024-01-30T06:59:37;8.77;;;3.63;;
56045;SDS011;41913;51.030;3.706;2024-01-30T07:02:08;6.53;;;2.53;;
56045;SDS011;41913;51.030;3.706;2024-01-30T07:04:37;4.05;;;3.10;;
56045;SDS011;41913;51.030;3.706;2024-01-30T07:07:04;8.68;;;2.75;;
56045;SDS011;41913;51.030;3.706;2024-01-30T07:09:31;9.10;;;2.97;;
56045;SDS011;41913;51.030;3.706;2024-01-30T07:11:58;6.53;;;2.88;;
56045;SDS011;41913;51.030;3.706;2024-01-30T07:14:24;4.82;;;2.85;;
56045;SDS011;41913;51.030;3.706;2024-01-30T07:16:50;6.57;;;2.50;;
56045;SDS011;41913;51.030;3.706;2024-01-30T07:19:16;3.65;;;2.38;;
56045;SDS011;41913;51.030;3.706;2024-01-30T07:21:42;3.22;;;2.20;;
56045;SDS011;41913;51.030;3.706;2024-01-30T07:24:08;3.13;;;2.60;;
56045;SDS011;41913;51.030;3.706;2024-01-30T07:26:33;2.65;;;2.38;;
56045;SDS011;41913;51.030;3.706;2024-01-30T07:29:01;6.97;;;2.47;;
56045;SDS011;41913;51.030;3.706;2024-01-30T07:31:28;4.28;;;2.72;;
56045;SDS011;41913;51.030;3.706;2024-01-30T07:33:54;2.58;;;2.33;;
56045;SDS011;41913;51.030;3.706;2024-01-30T07:36:21;3.78;;;2.80;;
56045;SDS011;41913;51.030;3.706;2024-01-30T07:38:46;3.72;;;2.65;;
56045;SDS011;41913;51.030;3.706;2024-01-30T07:41:12;5.38;;;2.78;;
56045;SDS011;41913;51.030;3.706;2024-01-30T07:43:38;4.68;;;2.30;;
56045;SDS011;41913;51.030;3.706;2024-01-30T07:46:04;4.13;;;3.13;;
56045;SDS011;41913;51.030;3.706;2024-01-30T07:48:32;4.93;;;2.50;;
56045;SDS011;41913;51.030;3.706;2024-01-30T07:50:59;3.08;;;2.58;;
56045;SDS011;41913;51.030;3.706;2024-01-30T07:53:25;3.58;;;2.65;;
56045;SDS011;41913;51.030;3.706;2024-01-30T07:55:51;7.32;;;2.70;;
56045;SDS011;41913;51.030;3.706;2024-01-30T07:58:17;3.17;;;2.65;;
56045;SDS011;41913;51.030;3.706;2024-01-30T08:00:44;4.03;;;2.50;;
56045;SDS011;41913;51.030;3.706;2024-01-30T08:03:10;3.33;;;2.53;;
56045;SDS011;41913;51.030;3.706;2024-01-30T08:05:35;5.90;;;2.75;;
56045;SDS011;41913;51.030;3.706;2024-01-30T08:08:01;3.03;;;2.45;;
56045;SDS011;41913;51.030;3.706;2024-01-30T08:10:27;3.85;;;2.28;;
56045;SDS011;41913;51.030;3.706;2024-01-30T08:12:53;5.65;;;2.45;;
56045;SDS011;41913;51.030;3.706;2024-01-30T08:15:18;4.05;;;2.65;;
56045;SDS011;41913;51.030;3.706;2024-01-30T08:17:45;2.30;;;2.10;;
56045;SDS011;41913;51.030;3.706;2024-01-30T08:20:11;3.92;;;1.85;;
56045;SDS011;41913;51.030;3.706;2024-01-30T08:22:40;2.75;;;2.55;;
56045;SDS011;41913;51.030;3.706;2024-01-30T08:25:06;3.65;;;2.10;;
56045;SDS011;41913;51.030;3.706;2024-01-30T08:27:33;2.63;;;2.42;;
56045;SDS011;41913;51.030;3.706;2024-01-30T08:30:00;2.42;;;2.20;;
56045;SDS011;41913;51.030;3.706;2024-01-30T08:32:28;2.70;;;2.50;;
56045;SDS011;41913;51.030;3.706;2024-01-30T08:34:53;3.83;;;2.22;;
56045;SDS011;41913;51.030;3.706;2024-01-30T08:37:19;4.07;;;2.60;;
56045;SDS011;41913;51.030;3.706;2024-01-30T08:39:45;5.25;;;2.78;;
56045;SDS011;41913;51.030;3.706;2024-01-30T08:42:11;3.22;;;2.92;;
56045;SDS011;41913;51.030;3.706;2024-01-30T08:44:37;2.97;;;2.70;;
56045;SDS011;41913;51.030;3.706;2024-01-30T08:47:03;2.58;;;2.38;;
56045;SDS011;41913;51.030;3.706;2024-01-30T08:49:29;2.58;;;2.30;;
56045;SDS011;41913;51.030;3.706;2024-01-30T08:51:55;2.72;;;2.53;;
56045;SDS011;41913;51.030;3.706;2024-01-30T08:54:21;2.55;;;2.38;;
56045;SDS011;41913;51.030;3.706;2024-01-30T08:56:48;6.45;;;2.28;;
56045;SDS011;41913;51.030;3.706;2024-01-30T08:59:13;2.55;;;2.35;;
56045;SDS011;41913;51.030;3.706;2024-01-30T09:01:39;3.72;;;2.20;;
56045;SDS011;41913;51.030;3.706;2024-01-30T09:04:05;2.63;;;2.00;;
56045;SDS011;41913;51.030;3.706;2024-01-30T09:06:31;2.88;;;2.40;;
56045;SDS011;41913;51.030;3.706;2024-01-30T09:08:57;2.22;;;2.13;;
56045;SDS011;41913;51.030;3.706;2024-01-30T09:11:23;3.63;;;1.90;;
56045;SDS011;41913;51.030;3.706;2024-01-30T09:13:48;6.32;;;2.70;;
56045;SDS011;41913;51.030;3.706;2024-01-30T09:16:14;4.72;;;2.00;;
56045;SDS011;41913;51.030;3.706;2024-01-30T09:18:41;4.22;;;2.38;;
56045;SDS011;41913;51.030;3.706;2024-01-30T09:21:07;2.92;;;1.88;;
56045;SDS011;41913;51.030;3.706;2024-01-30T09:23:33;2.97;;;2.30;;
56045;SDS011;41913;51.030;3.706;2024-01-30T09:25:58;3.42;;;2.00;;
56045;SDS011;41913;51.030;3.706;2024-01-30T09:28:25;3.17;;;1.98;;
56045;SDS011;41913;51.030;3.706;2024-01-30T09:30:52;2.20;;;2.10;;
56045;SDS011;41913;51.030;3.706;2024-01-30T09:33:17;2.22;;;2.13;;
56045;SDS011;41913;51.030;3.706;2024-01-30T09:35:43;1.70;;;1.63;;
56045;SDS011;41913;51.030;3.706;2024-01-30T09:38:09;3.35;;;1.67;;
56045;SDS011;41913;51.030;3.706;2024-01-30T09:40:36;3.80;;;1.50;;
56045;SDS011;41913;51.030;3.706;2024-01-30T09:43:01;2.58;;;2.13;;
56045;SDS011;41913;51.030;3.706;2024-01-30T09:45:27;1.50;;;1.27;;
56045;SDS011;41913;51.030;3.706;2024-01-30T09:47:54;2.63;;;1.52;;
56045;SDS011;41913;51.030;3.706;2024-01-30T09:50:24;2.13;;;1.98;;
56045;SDS011;41913;51.030;3.706;2024-01-30T09:52:50;2.13;;;1.67;;
56045;SDS011;41913;51.030;3.706;2024-01-30T09:55:18;1.60;;;1.50;;
56045;SDS011;41913;51.030;3.706;2024-01-30T09:57:44;3.42;;;1.30;;
56045;SDS011;41913;51.030;3.706;2024-01-30T10:00:10;2.30;;;1.75;;
56045;SDS011;41913;51.030;3.706;2024-01-30T10:02:36;1.80;;;1.48;;
56045;SDS011;41913;51.030;3.706;2024-01-30T10:05:03;1.30;;;1.25;;
56045;SDS011;41913;51.030;3.706;2024-01-30T10:07:30;0.90;;;0.90;;
56045;SDS011;41913;51.030;3.706;2024-01-30T10:09:56;2.78;;;1.45;;
56045;SDS011;41913;51.030;3.706;2024-01-30T10:12:22;0.90;;;0.90;;
56045;SDS011;41913;51.030;3.706;2024-01-30T10:14:48;1.00;;;0.90;;
56045;SDS011;41913;51.030;3.706;2024-01-30T10:17:14;1.35;;;1.02;;
56045;SDS011;41913;51.030;3.706;2024-01-30T10:19:41;1.42;;;1.13;;
56045;SDS011;41913;51.030;3.706;2024-01-30T10:22:07;0.57;;;0.57;;
56045;SDS011;41913;51.030;3.706;2024-01-30T10:24:34;1.52;;;0.95;;
56045;SDS011;41913;51.030;3.706;2024-01-30T10:27:01;1.52;;;1.08;;
56045;SDS011;41913;51.030;3.706;2024-01-30T10:29:27;1.10;;;0.90;;
56045;SDS011;41913;51.030;3.706;2024-01-30T10:32:03;2.53;;;0.85;;
56045;SDS011;41913;51.030;3.706;2024-01-30T10:34:30;1.05;;;1.05;;
56045;SDS011;41913;51.030;3.706;2024-01-30T10:37:03;1.00;;;0.70;;
56045;SDS011;41913;51.030;3.706;2024-01-30T10:39:45;0.90;;;0.80;;
56045;SDS011;41913;51.030;3.706;2024-01-30T10:42:12;0.90;;;0.57;;
56045;SDS011;41913;51.030;3.706;2024-01-30T10:44:56;1.13;;;0.70;;
56045;SDS011;41913;51.030;3.706;2024-01-30T10:47:28;1.83;;;1.13;;
56045;SDS011;41913;51.030;3.706;2024-01-30T10:49:55;1.20;;;0.98;;
56045;SDS011;41913;51.030;3.706;2024-01-30T10:52:22;0.88;;;0.73;;
56045;SDS011;41913;51.030;3.706;2024-01-30T10:54:53;0.85;;;0.70;;
56045;SDS011;41913;51.030;3.706;2024-01-30T10:57:20;1.45;;;1.33;;
56045;SDS011;41913;51.030;3.706;2024-01-30T10:59:49;0.98;;;0.85;;
56045;SDS011;41913;51.030;3.706;2024-01-30T11:02:17;1.30;;;1.10;;
56045;SDS011;41913;51.030;3.706;2024-01-30T11:04:45;1.10;;;0.85;;
56045;SDS011;41913;51.030;3.706;2024-01-30T11:07:17;0.95;;;0.93;;
56045;SDS011;41913;51.030;3.706;2024-01-30T11:12:40;1.20;;;0.98;;
56045;SDS011;41913;51.030;3.706;2024-01-30T11:15:14;1.63;;;0.90;;
56045;SDS011;41913;51.030;3.706;2024-01-30T11:17:50;0.70;;;0.70;;
56045;SDS011;41913;51.030;3.706;2024-01-30T11:22:56;1.42;;;0.80;;
56045;SDS011;41913;51.030;3.706;2024-01-30T11:25:24;1.38;;;0.93;;
56045;SDS011;41913;51.030;3.706;2024-01-30T11:27:54;0.50;;;0.50;;
56045;SDS011;41913;51.030;3.706;2024-01-30T11:30:21;2.38;;;1.00;;
56045;SDS011;41913;51.030;3.706;2024-01-30T11:33:00;1.10;;;0.80;;
56045;SDS011;41913;51.030;3.706;2024-01-30T11:35:35;2.00;;;0.70;;
56045;SDS011;41913;51.030;3.706;2024-01-30T11:38:08;1.05;;;0.80;;
56045;SDS011;41913;51.030;3.706;2024-01-30T11:40:36;0.75;;;0.75;;
56045;SDS011;41913;51.030;3.706;2024-01-30T11:43:03;0.90;;;0.80;;
56045;SDS011;41913;51.030;3.706;2024-01-30T11:45:30;0.98;;;0.60;;
56045;SDS011;41913;51.030;3.706;2024-01-30T11:47:58;0.63;;;0.63;;
56045;SDS011;41913;51.030;3.706;2024-01-30T11:50:26;0.70;;;0.70;;
56045;SDS011;41913;51.030;3.706;2024-01-30T11:52:53;1.38;;;0.75;;
56045;SDS011;41913;51.030;3.706;2024-01-30T11:55:19;0.73;;;0.73;;
56045;SDS011;41913;51.030;3.706;2024-01-30T11:57:45;1.48;;;0.60;;
56045;SDS011;41913;51.030;3.706;2024-01-30T12:00:15;1.60;;;0.68;;
56045;SDS011;41913;51.030;3.706;2024-01-30T12:05:14;0.73;;;0.50;;
56045;SDS011;41913;51.030;3.706;2024-01-30T12:07:40;2.38;;;0.85;;
56045;SDS011;41913;51.030;3.706;2024-01-30T12:10:11;1.05;;;0.52;;
56045;SDS011;41913;51.030;3.706;2024-01-30T12:12:39;0.82;;;0.50;;
56045;SDS011;41913;51.030;3.706;2024-01-30T12:15:07;0.90;;;0.57;;
56045;SDS011;41913;51.030;3.706;2024-01-30T12:17:33;0.50;;;0.50;;
56045;SDS011;41913;51.030;3.706;2024-01-30T12:20:13;0.50;;;0.50;;
56045;SDS011;41913;51.030;3.706;2024-01-30T12:22:47;1.02;;;0.98;;
56045;SDS011;41913;51.030;3.706;2024-01-30T12:25:14;0.77;;;0.70;;
56045;SDS011;41913;51.030;3.706;2024-01-30T12:27:43;1.08;;;0.95;;
56045;SDS011;41913;51.030;3.706;2024-01-30T12:30:16;0.52;;;0.50;;
56045;SDS011;41913;51.030;3.706;2024-01-30T12:32:44;0.68;;;0.60;;
56045;SDS011;41913;51.030;3.706;2024-01-30T12:35:11;1.38;;;0.75;;
56045;SDS011;41913;51.030;3.706;2024-01-30T12:37:38;1.55;;;0.55;;
56045;SDS011;41913;51.030;3.706;2024-01-30T12:40:06;3.13;;;0.73;;
56045;SDS011;41913;51.030;3.706;2024-01-30T12:42:33;2.53;;;0.60;;
56045;SDS011;41913;51.030;3.706;2024-01-30T12:45:00;1.30;;;0.88;;
56045;SDS011;41913;51.030;3.706;2024-01-30T12:47:27;1.85;;;0.95;;
56045;SDS011;41913;51.030;3.706;2024-01-30T12:49:53;1.02;;;0.70;;
56045;SDS011;41913;51.030;3.706;2024-01-30T12:52:19;0.50;;;0.45;;
56045;SDS011;41913;51.030;3.706;2024-01-30T12:54:50;0.40;;;0.40;;
56045;SDS011;41913;51.030;3.706;2024-01-30T12:57:16;2.45;;;0.82;;
56045;SDS011;41913;51.030;3.706;2024-01-30T12:59:44;0.55;;;0.55;;
56045;SDS011;41913;51.030;3.706;2024-01-30T13:02:12;0.63;;;0.50;;
56045;SDS011;41913;51.030;3.706;2024-01-30T13:04:39;0.73;;;0.60;;
56045;SDS011;41913;51.030;3.706;2024-01-30T13:07:05;1.27;;;0.65;;
56045;SDS011;41913;51.030;3.706;2024-01-30T13:09:31;0.85;;;0.60;;
56045;SDS011;41913;51.030;3.706;2024-01-30T13:11:57;0.43;;;0.43;;
56045;SDS011;41913;51.030;3.706;2024-01-30T13:14:24;0.47;;;0.40;;
56045;SDS011;41913;51.030;3.706;2024-01-30T13:16:51;0.93;;;0.60;;
56045;SDS011;41913;51.030;3.706;2024-01-30T13:19:17;0.75;;;0.50;;
56045;SDS011;41913;51.030;3.706;2024-01-30T13:21:43;2.35;;;0.40;;
56045;SDS011;41913;51.030;3.706;2024-01-30T13:24:09;0.20;;;0.20;;
56045;SDS011;41913;51.030;3.706;2024-01-30T13:26:35;6.03;;;0.77;;
56045;SDS011;41913;51.030;3.706;2024-01-30T13:29:01;1.45;;;0.43;;
56045;SDS011;41913;51.030;3.706;2024-01-30T13:31:27;0.65;;;0.55;;
56045;SDS011;41913;51.030;3.706;2024-01-30T13:33:53;0.50;;;0.50;;
56045;SDS011;41913;51.030;3.706;2024-01-30T13:36:22;1.38;;;0.60;;
56045;SDS011;41913;51.030;3.706;2024-01-30T13:38:48;0.70;;;0.60;;
56045;SDS011;41913;51.030;3.706;2024-01-30T13:41:15;1.45;;;0.90;;
56045;SDS011;41913;51.030;3.706;2024-01-30T13:43:41;2.05;;;0.75;;
56045;SDS011;41913;51.030;3.706;2024-01-30T13:46:08;0.45;;;0.45;;
56045;SDS011;41913;51.030;3.706;2024-01-30T13:48:34;1.73;;;0.80;;
56045;SDS011;41913;51.030;3.706;2024-01-30T13:51:00;1.98;;;0.52;;
56045;SDS011;41913;51.030;3.706;2024-01-30T13:53:25;2.13;;;0.70;;
56045;SDS011;41913;51.030;3.706;2024-01-30T13:55:52;0.65;;;0.63;;
56045;SDS011;41913;51.030;3.706;2024-01-30T13:58:18;2.88;;;0.40;;
56045;SDS011;41913;51.030;3.706;2024-01-30T14:00:44;1.17;;;0.55;;
56045;SDS011;41913;51.030;3.706;2024-01-30T14:03:10;0.50;;;0.50;;
56045;SDS011;41913;51.030;3.706;2024-01-30T14:05:36;4.03;;;0.85;;
56045;SDS011;41913;51.030;3.706;2024-01-30T14:08:02;0.47;;;0.35;;
56045;SDS011;41913;51.030;3.706;2024-01-30T14:10:28;0.85;;;0.85;;
56045;SDS011;41913;51.030;3.706;2024-01-30T14:12:53;0.57;;;0.57;;
56045;SDS011;41913;51.030;3.706;2024-01-30T14:15:19;0.73;;;0.50;;
56045;SDS011;41913;51.030;3.706;2024-01-30T14:17:45;0.73;;;0.60;;
56045;SDS011;41913;51.030;3.706;2024-01-30T14:20:14;0.98;;;0.82;;
56045;SDS011;41913;51.030;3.706;2024-01-30T14:22:43;2.33;;;0.85;;
56045;SDS011;41913;51.030;3.706;2024-01-30T14:25:09;0.60;;;0.40;;
56045;SDS011;41913;51.030;3.706;2024-01-30T14:27:37;0.52;;;0.52;;
56045;SDS011;41913;51.030;3.706;2024-01-30T14:30:03;1.02;;;0.88;;
56045;SDS011;41913;51.030;3.706;2024-01-30T14:32:31;0.57;;;0.50;;
56045;SDS011;41913;51.030;3.706;2024-01-30T14:34:58;1.80;;;0.60;;
56045;SDS011;41913;51.030;3.706;2024-01-30T14:37:24;1.42;;;0.95;;
56045;SDS011;41913;51.030;3.706;2024-01-30T14:39:50;0.68;;;0.50;;
56045;SDS011;41913;51.030;3.706;2024-01-30T14:42:15;1.60;;;0.82;;
56045;SDS011;41913;51.030;3.706;2024-01-30T14:44:42;3.90;;;0.82;;
56045;SDS011;41913;51.030;3.706;2024-01-30T14:47:08;1.02;;;0.93;;
56045;SDS011;41913;51.030;3.706;2024-01-30T14:49:34;1.42;;;0.60;;
56045;SDS011;41913;51.030;3.706;2024-01-30T14:52:01;1.17;;;0.90;;
56045;SDS011;41913;51.030;3.706;2024-01-30T14:56:58;0.47;;;0.47;;
56045;SDS011;41913;51.030;3.706;2024-01-30T15:02:01;1.45;;;1.00;;